createdAt,value
2023-01-30T00:01:10.101Z,35.12
2023-01-30T00:03:36.404Z,35.05
2023-01-30T00:06:02.693Z,35.83
2023-01-30T00:08:29.054Z,34.59
2023-01-30T00:10:55.306Z,35.66
2023-01-30T00:13:21.567Z,35.53
2023-01-30T00:15:47.885Z,34.09
2023-01-30T00:18:14.151Z,35.14
2023-01-30T00:20:40.429Z,34.20
2023-01-30T00:23:06.701Z,34.69
2023-01-30T00:25:33.103Z,34.92
2023-01-30T00:27:59.428Z,35.29
2023-01-30T00:30:25.738Z,36.13
2023-01-30T00:32:52.320Z,35.38
2023-01-30T00:35:18.602Z,35.56
2023-01-30T00:37:45.075Z,34.82
2023-01-30T00:40:11.345Z,35.65
2023-01-30T00:42:37.620Z,35.42
2023-01-30T00:45:03.869Z,34.81
2023-01-30T00:47:30.129Z,34.74
2023-01-30T00:49:56.382Z,35.39
2023-01-30T00:52:22.697Z,35.62
2023-01-30T00:54:48.989Z,36.08
2023-01-30T00:57:15.258Z,36.79
2023-01-30T00:59:41.523Z,37.19
2023-01-30T01:02:07.854Z,37.70
2023-01-30T01:04:34.145Z,37.10
2023-01-30T01:07:00.413Z,35.47
2023-01-30T01:09:26.671Z,36.55
2023-01-30T01:11:52.918Z,35.55
2023-01-30T01:14:19.260Z,36.19
2023-01-30T01:16:45.696Z,35.33
2023-01-30T01:19:12.319Z,34.37
2023-01-30T01:21:38.628Z,35.49
2023-01-30T01:24:04.898Z,35.32
2023-01-30T01:26:31.220Z,36.78
2023-01-30T01:28:57.601Z,37.14
2023-01-30T01:31:24.090Z,36.68
2023-01-30T01:33:50.531Z,36.40
2023-01-30T01:36:42.524Z,39.26
2023-01-30T01:39:03.054Z,39.84
2023-01-30T01:41:29.310Z,39.55
2023-01-30T01:43:55.568Z,39.08
2023-01-30T01:46:21.839Z,39.78
2023-01-30T01:48:48.123Z,42.84
2023-01-30T01:51:14.378Z,46.26
2023-01-30T01:53:40.641Z,45.24
2023-01-30T01:56:06.933Z,44.76
2023-01-30T01:58:33.188Z,40.41
2023-01-30T02:00:59.532Z,37.91
2023-01-30T02:03:25.844Z,35.08
2023-01-30T02:05:52.110Z,36.89
2023-01-30T02:08:18.382Z,40.65
2023-01-30T02:10:44.651Z,37.34
2023-01-30T02:13:10.939Z,36.85
2023-01-30T02:15:37.195Z,37.25
2023-01-30T02:18:03.452Z,37.49
2023-01-30T02:20:29.702Z,33.92
2023-01-30T02:22:55.984Z,34.13
2023-01-30T02:25:22.259Z,35.30
2023-01-30T02:27:48.529Z,36.45
2023-01-30T02:30:14.794Z,35.85
2023-01-30T02:32:41.084Z,36.19
2023-01-30T02:35:07.336Z,33.90
2023-01-30T02:37:33.626Z,32.14
2023-01-30T02:39:59.899Z,30.48
2023-01-30T02:42:26.168Z,29.63
2023-01-30T02:44:52.432Z,30.02
2023-01-30T02:47:18.720Z,28.59
2023-01-30T02:49:44.979Z,29.19
2023-01-30T02:52:11.221Z,29.47
2023-01-30T02:54:37.501Z,29.50
2023-01-30T02:57:03.790Z,29.67
2023-01-30T02:59:30.042Z,28.24
2023-01-30T03:01:56.293Z,28.23
2023-01-30T03:04:22.549Z,27.78
2023-01-30T03:06:48.795Z,26.40
2023-01-30T03:09:15.056Z,26.00
2023-01-30T03:11:41.320Z,27.32
2023-01-30T03:14:07.752Z,28.79
2023-01-30T03:16:34.017Z,29.13
2023-01-30T03:19:00.285Z,27.82
2023-01-30T03:21:26.551Z,27.08
2023-01-30T03:23:52.827Z,25.71
2023-01-30T03:26:19.109Z,25.96
2023-01-30T03:28:45.412Z,27.01
2023-01-30T03:31:11.777Z,26.20
2023-01-30T03:33:38.093Z,25.61
2023-01-30T03:36:04.340Z,26.60
2023-01-30T03:38:30.716Z,26.69
2023-01-30T03:40:56.993Z,26.41
2023-01-30T03:43:23.253Z,27.47
2023-01-30T03:45:49.527Z,26.93
2023-01-30T03:48:15.822Z,27.73
2023-01-30T03:50:42.097Z,27.46
2023-01-30T03:53:08.396Z,26.82
2023-01-30T03:55:34.662Z,27.20
2023-01-30T03:58:00.955Z,28.26
2023-01-30T04:00:27.247Z,30.24
2023-01-30T04:02:53.524Z,29.18
2023-01-30T04:05:20.036Z,28.75
2023-01-30T04:07:46.463Z,27.98
2023-01-30T04:10:12.747Z,28.62
2023-01-30T04:12:39.040Z,28.17
2023-01-30T04:15:05.316Z,26.89
2023-01-30T04:17:31.565Z,28.30
2023-01-30T04:19:57.903Z,27.63
2023-01-30T04:22:24.181Z,28.12
2023-01-30T04:24:50.453Z,27.54
2023-01-30T04:27:16.720Z,27.67
2023-01-30T04:29:43.000Z,28.69
2023-01-30T04:32:09.268Z,29.76
2023-01-30T04:34:35.541Z,29.64
2023-01-30T04:37:01.804Z,29.16
2023-01-30T04:39:28.106Z,28.31
2023-01-30T04:41:54.363Z,28.79
2023-01-30T04:44:20.650Z,28.87
2023-01-30T04:46:47.023Z,28.36
2023-01-30T04:49:13.287Z,29.05
2023-01-30T04:51:39.566Z,27.85
2023-01-30T04:54:05.935Z,27.70
2023-01-30T04:56:32.221Z,27.46
2023-01-30T04:58:58.486Z,28.39
2023-01-30T05:01:24.743Z,26.88
2023-01-30T05:03:51.042Z,28.14
2023-01-30T05:06:17.311Z,27.23
2023-01-30T05:08:46.594Z,27.71
2023-01-30T05:11:13.095Z,27.79
2023-01-30T05:13:39.349Z,27.35
2023-01-30T05:16:05.612Z,27.80
2023-01-30T05:18:31.900Z,27.00
2023-01-30T05:20:58.424Z,26.61
2023-01-30T05:23:24.701Z,27.80
2023-01-30T05:25:50.959Z,28.14
2023-01-30T05:28:17.216Z,28.94
2023-01-30T05:30:44.599Z,28.96
2023-01-30T05:33:12.519Z,29.10
2023-01-30T05:35:38.774Z,28.13
2023-01-30T05:38:05.033Z,28.41
2023-01-30T05:40:31.320Z,28.34
2023-01-30T05:42:57.584Z,28.90
2023-01-30T05:45:23.860Z,28.70
2023-01-30T05:47:50.148Z,29.60
2023-01-30T05:50:16.443Z,29.03
2023-01-30T05:52:42.708Z,27.61
2023-01-30T05:55:08.986Z,28.33
2023-01-30T05:57:35.272Z,28.68
2023-01-30T06:00:01.599Z,29.23
2023-01-30T06:02:27.912Z,29.11
2023-01-30T06:04:54.202Z,29.20
2023-01-30T06:07:20.497Z,29.15
2023-01-30T06:09:46.761Z,29.69
2023-01-30T06:12:13.115Z,31.82
2023-01-30T06:14:39.477Z,31.78
2023-01-30T06:17:05.804Z,32.62
2023-01-30T06:19:32.091Z,32.36
2023-01-30T06:21:58.367Z,33.63
2023-01-30T06:24:24.698Z,34.00
2023-01-30T06:26:51.025Z,32.68
2023-01-30T06:29:17.337Z,34.38
2023-01-30T06:31:43.643Z,34.81
2023-01-30T06:34:09.941Z,34.00
2023-01-30T06:36:36.280Z,34.86
2023-01-30T06:39:02.556Z,34.49
2023-01-30T06:41:28.830Z,34.41
2023-01-30T06:43:55.097Z,34.48
2023-01-30T06:46:21.428Z,34.12
2023-01-30T06:48:47.731Z,35.51
2023-01-30T06:51:14.018Z,34.88
2023-01-30T06:53:40.285Z,33.71
2023-01-30T06:56:06.532Z,33.69
2023-01-30T06:58:32.859Z,33.93
2023-01-30T07:00:59.113Z,34.78
2023-01-30T07:03:25.403Z,36.56
2023-01-30T07:05:51.732Z,35.62
2023-01-30T07:08:18.007Z,36.21
2023-01-30T07:10:44.268Z,35.99
2023-01-30T07:13:10.574Z,35.94
2023-01-30T07:15:36.843Z,37.43
2023-01-30T07:18:03.146Z,36.35
2023-01-30T07:20:29.490Z,35.26
2023-01-30T07:22:55.851Z,35.66
2023-01-30T07:25:22.143Z,36.87
2023-01-30T07:27:48.422Z,37.20
2023-01-30T07:30:14.718Z,36.97
2023-01-30T07:32:40.991Z,36.27
2023-01-30T07:35:07.269Z,35.94
2023-01-30T07:37:33.559Z,36.28
2023-01-30T07:39:59.813Z,36.48
2023-01-30T07:42:26.141Z,35.94
2023-01-30T07:44:52.396Z,35.60
2023-01-30T07:47:18.707Z,36.13
2023-01-30T07:49:45.068Z,36.99
2023-01-30T07:52:11.383Z,34.82
2023-01-30T07:54:37.643Z,35.20
2023-01-30T07:57:03.914Z,35.22
2023-01-30T07:59:30.184Z,35.02
2023-01-30T08:01:56.461Z,34.57
2023-01-30T08:04:22.732Z,36.20
2023-01-30T08:06:49.011Z,36.55
2023-01-30T08:09:15.270Z,35.15
2023-01-30T08:11:41.560Z,34.79
2023-01-30T08:14:07.853Z,35.81
2023-01-30T08:16:34.196Z,36.03
2023-01-30T08:19:00.534Z,36.96
2023-01-30T08:21:26.823Z,36.72
2023-01-30T08:23:53.084Z,36.45
2023-01-30T08:26:19.395Z,36.07
2023-01-30T08:28:45.724Z,36.88
2023-01-30T08:31:12.093Z,37.75
2023-01-30T08:33:38.422Z,36.57
2023-01-30T08:36:04.688Z,37.32
2023-01-30T08:38:30.947Z,38.02
2023-01-30T08:40:57.236Z,37.00
2023-01-30T08:43:23.513Z,38.02
2023-01-30T08:45:49.801Z,38.59
2023-01-30T08:48:16.128Z,38.12
2023-01-30T08:50:42.399Z,38.48
2023-01-30T08:53:08.661Z,37.83
2023-01-30T08:55:34.971Z,37.01
2023-01-30T08:58:01.221Z,36.24
2023-01-30T09:00:27.488Z,37.02
2023-01-30T09:02:53.833Z,38.34
2023-01-30T09:05:20.112Z,38.74
2023-01-30T09:07:46.385Z,39.34
2023-01-30T09:10:12.674Z,39.29
2023-01-30T09:12:38.938Z,38.99
2023-01-30T09:15:05.220Z,39.01
2023-01-30T09:17:31.489Z,39.09
2023-01-30T09:19:57.760Z,39.45
2023-01-30T09:22:24.019Z,39.96
2023-01-30T09:24:50.287Z,39.63
2023-01-30T09:27:16.570Z,39.06
2023-01-30T09:29:44.419Z,39.73
2023-01-30T09:32:11.684Z,38.44
2023-01-30T09:34:37.932Z,38.30
2023-01-30T09:37:05.097Z,38.84
2023-01-30T09:39:31.534Z,38.15
2023-01-30T09:41:57.805Z,38.31
2023-01-30T09:44:24.086Z,38.96
2023-01-30T09:46:50.367Z,39.68
2023-01-30T09:49:16.635Z,39.10
2023-01-30T09:51:42.963Z,39.35
2023-01-30T09:54:09.248Z,38.23
2023-01-30T09:56:35.516Z,39.33
2023-01-30T09:59:01.815Z,38.11
2023-01-30T10:01:28.093Z,38.84
2023-01-30T10:03:54.392Z,38.77
2023-01-30T10:06:20.665Z,38.34
2023-01-30T10:08:46.940Z,37.88
2023-01-30T10:11:13.211Z,38.67
2023-01-30T10:13:39.505Z,38.15
2023-01-30T10:16:05.835Z,38.06
2023-01-30T10:18:32.246Z,37.34
2023-01-30T10:20:58.552Z,39.35
2023-01-30T10:23:24.830Z,38.23
2023-01-30T10:25:51.094Z,38.83
2023-01-30T10:28:17.373Z,38.79
2023-01-30T10:30:43.681Z,36.89
2023-01-30T10:33:09.975Z,36.90
2023-01-30T10:35:36.249Z,36.02
2023-01-30T10:38:02.527Z,36.28
2023-01-30T10:40:28.788Z,36.25
2023-01-30T10:42:55.067Z,35.30
2023-01-30T10:45:22.440Z,33.86
2023-01-30T10:47:48.710Z,31.50
2023-01-30T10:50:14.994Z,32.57
2023-01-30T10:52:41.319Z,31.70
2023-01-30T10:55:07.592Z,31.20
2023-01-30T10:57:33.874Z,31.08
2023-01-30T11:00:00.151Z,32.00
2023-01-30T11:02:26.492Z,31.08
2023-01-30T11:04:52.797Z,32.62
2023-01-30T11:07:19.082Z,31.63
2023-01-30T11:09:45.334Z,32.10
2023-01-30T11:12:11.616Z,32.30
2023-01-30T11:14:37.875Z,31.62
2023-01-30T11:17:04.152Z,30.99
2023-01-30T11:19:30.529Z,31.97
2023-01-30T11:21:56.803Z,31.81
2023-01-30T11:24:23.071Z,30.48
2023-01-30T11:26:49.460Z,31.35
2023-01-30T11:29:15.784Z,31.82
2023-01-30T11:31:42.295Z,30.80
2023-01-30T11:34:08.633Z,31.42
2023-01-30T11:36:34.898Z,31.95
2023-01-30T11:39:01.182Z,32.26
2023-01-30T11:41:27.480Z,32.43
2023-01-30T11:43:53.752Z,32.72
2023-01-30T11:46:20.037Z,32.38
2023-01-30T11:49:03.646Z,33.53
2023-01-30T11:51:32.620Z,33.05
2023-01-30T11:53:58.943Z,33.32
2023-01-30T11:56:25.188Z,31.96
2023-01-30T11:58:51.536Z,32.15
2023-01-30T12:01:17.847Z,31.85
2023-01-30T12:03:44.106Z,30.65
2023-01-30T12:06:10.405Z,31.04
2023-01-30T12:08:43.805Z,31.26
2023-01-30T12:11:10.144Z,30.87
2023-01-30T12:13:36.432Z,30.60
2023-01-30T12:16:02.746Z,29.62
2023-01-30T12:18:29.060Z,30.84
2023-01-30T12:20:55.365Z,29.73
2023-01-30T12:23:21.630Z,29.30
2023-01-30T12:25:47.897Z,30.17
2023-01-30T12:28:14.273Z,30.34
2023-01-30T12:30:40.527Z,29.73
2023-01-30T12:33:06.813Z,29.47
2023-01-30T12:35:33.119Z,29.22
2023-01-30T12:37:59.400Z,30.03
2023-01-30T12:40:25.693Z,29.82
2023-01-30T12:42:51.970Z,29.58
2023-01-30T12:45:18.447Z,29.09
2023-01-30T12:47:44.877Z,29.37
2023-01-30T12:50:11.168Z,30.44
2023-01-30T12:52:37.434Z,30.53
2023-01-30T12:55:03.799Z,30.03
2023-01-30T12:57:30.089Z,29.81
2023-01-30T12:59:56.371Z,29.88
2023-01-30T13:02:23.912Z,28.57
2023-01-30T13:04:56.722Z,29.86
2023-01-30T13:07:28.567Z,30.77
2023-01-30T13:09:54.832Z,29.77
2023-01-30T13:12:21.119Z,30.42
2023-01-30T13:14:47.388Z,29.78
2023-01-30T13:17:13.663Z,29.45
2023-01-30T13:19:41.493Z,30.15
2023-01-30T13:22:07.967Z,29.17
2023-01-30T13:24:34.247Z,28.66
2023-01-30T13:27:00.513Z,29.69
2023-01-30T13:29:26.784Z,30.05
2023-01-30T13:31:53.237Z,30.71
2023-01-30T13:34:19.639Z,31.22
2023-01-30T13:36:45.895Z,30.14
2023-01-30T13:39:12.229Z,30.45
2023-01-30T13:41:38.509Z,30.08
2023-01-30T13:44:04.824Z,29.87
2023-01-30T13:46:31.300Z,29.69
2023-01-30T13:48:57.605Z,28.20
2023-01-30T13:51:23.892Z,27.75
2023-01-30T13:53:50.159Z,28.44
2023-01-30T13:56:39.843Z,28.10
2023-01-30T13:59:02.661Z,29.19
2023-01-30T14:01:28.936Z,28.48
2023-01-30T14:03:55.193Z,28.18
2023-01-30T14:06:21.463Z,28.19
2023-01-30T14:08:47.735Z,27.02
2023-01-30T14:11:14.063Z,27.01
2023-01-30T14:13:40.364Z,27.26
2023-01-30T14:16:06.709Z,27.87
2023-01-30T14:18:33.007Z,26.96
2023-01-30T14:20:59.265Z,28.08
2023-01-30T14:23:25.546Z,28.17
2023-01-30T14:25:51.820Z,27.23
2023-01-30T14:28:18.104Z,27.42
2023-01-30T14:30:44.458Z,27.25
2023-01-30T14:33:10.752Z,26.91
2023-01-30T14:35:37.017Z,27.12
2023-01-30T14:38:03.321Z,27.09
2023-01-30T14:40:29.705Z,28.69
2023-01-30T14:42:55.975Z,28.65
2023-01-30T14:45:22.250Z,29.12
2023-01-30T14:47:50.931Z,29.52
2023-01-30T14:50:18.273Z,28.55
2023-01-30T14:52:45.826Z,28.63
2023-01-30T14:55:12.109Z,28.65
2023-01-30T14:57:38.383Z,27.86
2023-01-30T15:00:16.098Z,28.72
2023-01-30T15:02:44.421Z,28.19
2023-01-30T15:05:10.805Z,29.39
2023-01-30T15:07:37.084Z,28.45
2023-01-30T15:10:03.357Z,28.01
2023-01-30T15:12:29.649Z,29.15
2023-01-30T15:14:56.019Z,28.93
2023-01-30T15:17:22.270Z,28.84
2023-01-30T15:19:48.526Z,28.17
2023-01-30T15:22:14.821Z,27.98
2023-01-30T15:24:41.121Z,28.42
2023-01-30T15:27:07.410Z,27.39
2023-01-30T15:29:33.707Z,27.73
2023-01-30T15:32:00.132Z,27.15
2023-01-30T15:34:26.483Z,27.43
2023-01-30T15:36:52.804Z,28.23
2023-01-30T15:39:19.061Z,28.23
2023-01-30T15:41:45.337Z,27.51
2023-01-30T15:44:11.595Z,28.06
2023-01-30T15:46:37.868Z,28.10
2023-01-30T15:49:04.199Z,27.44
2023-01-30T15:51:30.477Z,27.54
2023-01-30T15:53:56.790Z,28.63
2023-01-30T15:56:23.098Z,28.24
2023-01-30T15:58:49.363Z,28.98
2023-01-30T16:01:15.662Z,29.25
2023-01-30T16:03:41.953Z,28.77
2023-01-30T16:06:08.225Z,29.20
2023-01-30T16:08:34.499Z,29.81
2023-01-30T16:11:00.820Z,29.97
2023-01-30T16:13:27.138Z,30.56
2023-01-30T16:15:53.511Z,30.44
2023-01-30T16:18:19.821Z,30.39
2023-01-30T16:20:59.006Z,29.89
2023-01-30T16:23:27.400Z,29.47
2023-01-30T16:25:53.716Z,29.94
2023-01-30T16:28:19.968Z,29.99
2023-01-30T16:30:46.310Z,30.80
2023-01-30T16:33:12.618Z,30.52
2023-01-30T16:35:38.932Z,29.63
2023-01-30T16:38:05.191Z,30.95
2023-01-30T16:40:31.451Z,30.75
2023-01-30T16:43:06.468Z,30.39
2023-01-30T16:45:32.840Z,30.12
2023-01-30T16:47:59.132Z,30.38
2023-01-30T16:50:25.392Z,30.99
2023-01-30T16:52:51.962Z,31.21
2023-01-30T16:55:18.265Z,31.08
2023-01-30T16:57:44.554Z,30.46
2023-01-30T17:00:10.836Z,30.97
2023-01-30T17:02:37.125Z,31.13
2023-01-30T17:05:03.446Z,31.17
2023-01-30T17:07:29.709Z,31.86
2023-01-30T17:09:55.957Z,32.55
2023-01-30T17:12:22.310Z,31.74
2023-01-30T17:14:48.579Z,31.39
2023-01-30T17:17:14.857Z,30.77
2023-01-30T17:19:41.121Z,29.72
2023-01-30T17:22:07.380Z,30.00
2023-01-30T17:24:33.651Z,30.44
2023-01-30T17:26:59.934Z,31.47
2023-01-30T17:29:41.554Z,32.89
2023-01-30T17:32:08.731Z,32.73
2023-01-30T17:34:35.081Z,32.05
2023-01-30T17:37:01.352Z,35.29
2023-01-30T17:39:27.616Z,33.09
2023-01-30T17:41:53.939Z,33.43
2023-01-30T17:44:20.208Z,34.53
2023-01-30T17:46:46.504Z,33.87
2023-01-30T17:49:12.762Z,34.96
2023-01-30T17:51:39.068Z,36.67
2023-01-30T17:54:05.461Z,36.65
2023-01-30T17:56:31.733Z,36.83
2023-01-30T17:58:57.996Z,38.31
2023-01-30T18:01:24.394Z,37.82
2023-01-30T18:03:50.756Z,37.33
2023-01-30T18:06:17.040Z,37.10
2023-01-30T18:08:43.306Z,38.16
2023-01-30T18:11:09.595Z,39.43
2023-01-30T18:13:36.539Z,38.29
2023-01-30T18:16:02.877Z,38.46
2023-01-30T18:18:29.165Z,38.21
2023-01-30T18:20:55.435Z,39.00
2023-01-30T18:23:21.701Z,39.62
2023-01-30T18:25:47.978Z,38.23
2023-01-30T18:28:14.261Z,38.11
2023-01-30T18:30:40.558Z,37.02
2023-01-30T18:33:06.842Z,36.88
2023-01-30T18:35:33.111Z,38.48
2023-01-30T18:38:02.635Z,37.90
2023-01-30T18:40:29.243Z,39.06
2023-01-30T18:42:55.497Z,35.91
2023-01-30T18:45:21.764Z,37.44
2023-01-30T18:47:48.027Z,37.04
2023-01-30T18:50:14.390Z,35.84
2023-01-30T18:52:40.663Z,34.39
2023-01-30T18:55:06.949Z,34.79
2023-01-30T18:57:33.257Z,34.68
2023-01-30T18:59:59.600Z,34.60
2023-01-30T19:02:25.953Z,34.66
2023-01-30T19:04:52.223Z,36.64
2023-01-30T19:07:18.508Z,36.61
2023-01-30T19:09:44.780Z,38.27
2023-01-30T19:12:11.101Z,38.91
2023-01-30T19:14:37.378Z,41.38
2023-01-30T19:17:03.697Z,42.06
2023-01-30T19:19:30.004Z,40.27
2023-01-30T19:21:56.362Z,37.00
2023-01-30T19:24:22.681Z,34.29
2023-01-30T19:26:48.995Z,35.25
2023-01-30T19:29:15.325Z,34.52
2023-01-30T19:31:41.771Z,37.65
2023-01-30T19:34:08.070Z,37.85
2023-01-30T19:36:34.344Z,38.08
2023-01-30T19:39:00.661Z,38.50
2023-01-30T19:41:26.988Z,38.96
2023-01-30T19:43:53.311Z,38.11
2023-01-30T19:46:19.691Z,37.68
2023-01-30T19:48:46.028Z,36.47
2023-01-30T19:51:12.315Z,35.14
2023-01-30T19:53:38.577Z,34.95
2023-01-30T19:56:05.179Z,37.23
2023-01-30T19:58:31.496Z,38.81
2023-01-30T20:00:57.766Z,39.99
2023-01-30T20:03:24.066Z,39.95
2023-01-30T20:05:50.458Z,39.25
2023-01-30T20:08:31.722Z,41.50
2023-01-30T20:10:58.801Z,42.72
2023-01-30T20:13:25.128Z,46.28
2023-01-30T20:15:51.449Z,47.21
2023-01-30T20:18:17.714Z,45.62
2023-01-30T20:20:44.206Z,46.98
2023-01-30T20:23:10.473Z,49.48
2023-01-30T20:25:36.754Z,45.10
2023-01-30T20:28:03.034Z,43.60
2023-01-30T20:30:29.341Z,41.57
2023-01-30T20:32:55.657Z,41.51
2023-01-30T20:35:21.958Z,42.25
2023-01-30T20:37:48.245Z,42.27
2023-01-30T20:40:14.498Z,44.31
2023-01-30T20:42:40.765Z,44.93
2023-01-30T20:45:07.042Z,43.78
2023-01-30T20:47:33.356Z,41.04
2023-01-30T20:49:59.684Z,38.35
2023-01-30T20:52:26.125Z,37.53
2023-01-30T20:54:52.424Z,38.78
2023-01-30T20:57:18.915Z,39.05
2023-01-30T20:59:45.239Z,38.27
2023-01-30T21:02:11.527Z,38.54
2023-01-30T21:04:38.305Z,38.48
2023-01-30T21:07:05.037Z,38.88
2023-01-30T21:09:31.329Z,40.54
2023-01-30T21:11:57.598Z,41.60
2023-01-30T21:14:26.312Z,40.11
2023-01-30T21:16:52.945Z,41.54
2023-01-30T21:19:19.271Z,39.16
2023-01-30T21:21:47.591Z,39.60
2023-01-30T21:24:14.400Z,38.65
2023-01-30T21:26:40.777Z,39.93
2023-01-30T21:29:07.089Z,42.63
2023-01-30T21:31:33.455Z,43.40
2023-01-30T21:33:59.768Z,39.41
2023-01-30T21:36:26.091Z,40.00
2023-01-30T21:38:52.468Z,39.39
2023-01-30T21:41:18.748Z,38.88
2023-01-30T21:43:45.011Z,38.59
2023-01-30T21:46:11.293Z,37.64
2023-01-30T21:48:37.850Z,38.35
2023-01-30T21:51:04.152Z,37.79
2023-01-30T21:53:30.440Z,37.01
2023-01-30T21:55:56.938Z,37.59
2023-01-30T21:58:23.184Z,37.17
2023-01-30T22:00:49.444Z,36.96
2023-01-30T22:03:15.741Z,36.05
2023-01-30T22:05:42.013Z,36.08
2023-01-30T22:08:08.294Z,35.51
2023-01-30T22:10:34.584Z,34.61
2023-01-30T22:13:00.863Z,35.47
2023-01-30T22:15:27.137Z,35.49
2023-01-30T22:17:53.489Z,35.18
2023-01-30T22:20:19.804Z,34.43
2023-01-30T22:22:46.094Z,34.82
2023-01-30T22:25:12.377Z,34.90
2023-01-30T22:27:38.655Z,34.89
2023-01-30T22:30:04.946Z,33.25
2023-01-30T22:32:31.229Z,32.76
2023-01-30T22:34:57.514Z,27.29
2023-01-30T22:37:23.789Z,29.28
2023-01-30T22:39:50.392Z,28.15
2023-01-30T22:42:16.714Z,25.58
2023-01-30T22:44:46.053Z,23.66
2023-01-30T22:47:12.336Z,25.25
2023-01-30T22:49:38.655Z,23.55
2023-01-30T22:52:04.922Z,21.95
2023-01-30T22:54:31.191Z,21.46
2023-01-30T22:56:57.456Z,21.88
2023-01-30T22:59:23.747Z,21.58
2023-01-30T23:01:50.036Z,21.69
2023-01-30T23:04:16.310Z,21.75
2023-01-30T23:06:42.584Z,21.25
2023-01-30T23:09:08.863Z,20.27
2023-01-30T23:11:35.693Z,19.48
2023-01-30T23:14:02.006Z,17.65
2023-01-30T23:16:28.321Z,16.94
2023-01-30T23:18:54.608Z,16.04
2023-01-30T23:21:20.885Z,14.69
2023-01-30T23:23:47.152Z,12.22
2023-01-30T23:26:13.455Z,10.43
2023-01-30T23:28:40.260Z,9.70
2023-01-30T23:31:06.581Z,8.57
2023-01-30T23:33:32.855Z,8.51
2023-01-30T23:35:59.135Z,8.66
2023-01-30T23:38:25.384Z,7.16
2023-01-30T23:40:51.718Z,7.00
2023-01-30T23:43:17.982Z,7.06
2023-01-30T23:45:44.994Z,6.95
2023-01-30T23:48:11.359Z,7.33
2023-01-30T23:50:37.697Z,7.18
2023-01-30T23:53:03.986Z,7.09
2023-01-30T23:55:32.488Z,7.39
2023-01-30T23:57:59.684Z,7.64
